createdAt,value
2023-01-03T00:01:16.132Z,6.00
2023-01-03T00:03:43.232Z,6.00
2023-01-03T00:06:27.331Z,6.00
2023-01-03T00:08:55.526Z,6.00
2023-01-03T00:11:44.520Z,6.00
2023-01-03T00:14:13.849Z,6.00
2023-01-03T00:16:40.870Z,5.90
2023-01-03T00:19:09.626Z,6.00
2023-01-03T00:21:36.767Z,5.90
2023-01-03T00:24:03.899Z,5.90
2023-01-03T00:26:30.832Z,5.90
2023-01-03T00:28:57.512Z,5.90
2023-01-03T00:31:24.231Z,5.80
2023-01-03T00:33:51.132Z,5.80
2023-01-03T00:36:17.834Z,5.80
2023-01-03T00:38:44.626Z,5.80
2023-01-03T00:41:16.370Z,5.80
2023-01-03T00:43:45.928Z,5.80
2023-01-03T00:46:13.965Z,5.70
2023-01-03T00:48:41.317Z,5.70
2023-01-03T00:51:10.844Z,5.70
2023-01-03T00:53:38.731Z,5.60
2023-01-03T00:56:08.511Z,5.60
2023-01-03T00:58:35.892Z,5.50
2023-01-03T01:01:11.766Z,5.50
2023-01-03T01:03:41.482Z,5.40
2023-01-03T01:06:17.029Z,5.40
2023-01-03T01:08:45.047Z,5.30
2023-01-03T01:11:14.378Z,5.30
2023-01-03T01:13:41.751Z,5.30
2023-01-03T01:16:13.836Z,5.20
2023-01-03T01:18:42.617Z,5.20
2023-01-03T01:21:13.523Z,5.20
2023-01-03T01:23:41.585Z,5.10
2023-01-03T01:26:12.129Z,5.10
2023-01-03T01:28:38.816Z,5.10
2023-01-03T01:31:06.984Z,5.10
2023-01-03T01:33:35.742Z,5.10
2023-01-03T01:36:11.968Z,5.10
2023-01-03T01:38:38.639Z,5.10
2023-01-03T01:41:05.453Z,5.10
2023-01-03T01:43:50.663Z,5.10
2023-01-03T01:46:25.040Z,5.10
2023-01-03T01:49:04.051Z,5.00
2023-01-03T01:51:32.972Z,5.00
2023-01-03T01:54:02.080Z,4.90
2023-01-03T01:56:33.364Z,4.90
2023-01-03T01:59:00.431Z,4.90
2023-01-03T02:01:27.469Z,4.80
2023-01-03T02:04:01.745Z,4.80
2023-01-03T02:06:31.475Z,4.80
2023-01-03T02:08:58.108Z,4.70
2023-01-03T02:11:48.935Z,4.60
2023-01-03T02:14:31.036Z,4.50
2023-01-03T02:17:09.461Z,4.50
2023-01-03T02:20:19.696Z,4.50
2023-01-03T02:23:13.747Z,4.40
2023-01-03T02:26:07.571Z,4.30
2023-01-03T02:29:08.493Z,4.30
2023-01-03T02:31:40.968Z,4.20
2023-01-03T02:34:27.313Z,4.20
2023-01-03T02:37:02.771Z,4.20
2023-01-03T02:39:48.532Z,4.30
2023-01-03T02:43:00.478Z,4.20
2023-01-03T02:46:06.931Z,4.30
2023-01-03T02:48:40.582Z,4.30
2023-01-03T02:51:21.267Z,4.40
2023-01-03T02:53:50.485Z,4.40
2023-01-03T02:56:26.127Z,4.50
2023-01-03T02:58:58.657Z,4.60
2023-01-03T03:01:27.166Z,4.60
2023-01-03T03:03:54.560Z,4.50
2023-01-03T03:06:36.581Z,4.50
2023-01-03T03:09:04.245Z,4.50
2023-01-03T03:11:54.596Z,4.40
2023-01-03T03:14:28.394Z,4.40
2023-01-03T03:17:00.140Z,4.30
2023-01-03T03:19:50.643Z,4.20
2023-01-03T03:22:46.104Z,4.20
2023-01-03T03:25:18.410Z,4.20
2023-01-03T03:28:07.515Z,4.10
2023-01-03T03:30:38.365Z,4.00
2023-01-03T03:33:06.599Z,4.00
2023-01-03T03:36:06.431Z,4.00
2023-01-03T03:38:40.385Z,3.90
2023-01-03T03:41:53.414Z,4.00
2023-01-03T03:44:52.011Z,3.90
2023-01-03T03:47:58.203Z,4.00
2023-01-03T03:50:54.528Z,4.00
2023-01-03T03:53:25.117Z,4.10
2023-01-03T03:55:57.151Z,4.10
2023-01-03T03:58:29.279Z,4.20
2023-01-03T04:00:57.689Z,4.20
2023-01-03T04:03:25.215Z,4.20
2023-01-03T04:05:59.974Z,4.20
2023-01-03T04:08:26.793Z,4.20
2023-01-03T04:11:05.663Z,4.20
2023-01-03T04:13:33.983Z,4.20
2023-01-03T04:16:00.885Z,4.20
2023-01-03T04:18:27.601Z,4.20
2023-01-03T04:20:54.522Z,4.10
2023-01-03T04:23:21.529Z,4.10
2023-01-03T04:25:50.848Z,4.10
2023-01-03T04:28:18.348Z,4.00
2023-01-03T04:30:46.039Z,4.10
2023-01-03T04:33:12.692Z,4.00
2023-01-03T04:35:39.362Z,4.00
2023-01-03T04:38:06.827Z,4.00
2023-01-03T04:40:38.594Z,3.90
2023-01-03T04:43:24.324Z,3.90
2023-01-03T04:45:51.607Z,3.90
2023-01-03T04:48:18.441Z,3.80
2023-01-03T04:50:55.772Z,3.80
2023-01-03T04:53:23.782Z,3.80
2023-01-03T04:55:51.938Z,3.80
2023-01-03T04:58:19.267Z,3.80
2023-01-03T05:00:46.255Z,3.70
2023-01-03T05:03:12.965Z,3.70
2023-01-03T05:05:40.307Z,3.70
2023-01-03T05:08:11.863Z,3.60
2023-01-03T05:10:39.190Z,3.60
2023-01-03T05:13:05.844Z,3.60
2023-01-03T05:15:36.530Z,3.60
2023-01-03T05:18:03.458Z,3.50
2023-01-03T05:20:48.614Z,3.50
2023-01-03T05:23:35.564Z,3.50
2023-01-03T05:26:10.001Z,3.50
2023-01-03T05:28:36.981Z,3.40
2023-01-03T05:31:03.613Z,3.40
2023-01-03T05:33:30.423Z,3.30
2023-01-03T05:35:57.135Z,3.30
2023-01-03T05:38:23.856Z,3.20
2023-01-03T05:40:51.363Z,3.20
2023-01-03T05:43:18.147Z,3.20
2023-01-03T05:45:50.490Z,3.10
2023-01-03T05:48:17.984Z,3.10
2023-01-03T05:50:45.329Z,3.20
2023-01-03T05:53:12.016Z,3.20
2023-01-03T05:55:39.265Z,3.20
2023-01-03T05:58:06.990Z,3.30
2023-01-03T06:00:34.356Z,3.20
2023-01-03T06:03:01.084Z,3.20
2023-01-03T06:05:27.782Z,3.10
2023-01-03T06:07:54.637Z,3.00
2023-01-03T06:10:21.329Z,3.00
2023-01-03T06:12:48.029Z,2.90
2023-01-03T06:15:14.672Z,2.80
2023-01-03T06:17:58.748Z,2.70
2023-01-03T06:20:26.966Z,2.70
2023-01-03T06:22:54.691Z,2.60
2023-01-03T06:25:22.022Z,2.60
2023-01-03T06:27:48.719Z,2.50
2023-01-03T06:30:15.853Z,2.50
2023-01-03T06:32:43.520Z,2.50
2023-01-03T06:35:10.445Z,2.40
2023-01-03T06:37:37.284Z,2.40
2023-01-03T06:40:04.764Z,2.30
2023-01-03T06:42:39.328Z,2.30
2023-01-03T06:45:24.813Z,2.30
2023-01-03T06:48:09.965Z,2.30
2023-01-03T06:51:01.030Z,2.20
2023-01-03T06:53:33.735Z,2.20
2023-01-03T06:56:00.795Z,2.10
2023-01-03T06:58:27.936Z,2.10
2023-01-03T07:00:55.852Z,2.10
2023-01-03T07:03:23.193Z,2.00
2023-01-03T07:05:50.267Z,2.00
2023-01-03T07:08:16.914Z,2.00
2023-01-03T07:10:43.532Z,2.00
2023-01-03T07:13:28.711Z,2.00
2023-01-03T07:15:55.409Z,2.00
2023-01-03T07:18:22.176Z,1.90
2023-01-03T07:20:48.795Z,1.90
2023-01-03T07:23:15.527Z,1.90
2023-01-03T07:25:42.430Z,1.80
2023-01-03T07:28:13.615Z,1.80
2023-01-03T07:30:43.028Z,1.80
2023-01-03T07:33:12.208Z,1.70
2023-01-03T07:35:38.909Z,1.70
2023-01-03T07:38:06.630Z,1.60
2023-01-03T07:40:33.348Z,1.70
2023-01-03T07:43:18.800Z,1.60
2023-01-03T07:45:45.849Z,1.70
2023-01-03T07:48:13.500Z,1.60
2023-01-03T07:50:40.289Z,1.60
2023-01-03T07:53:08.743Z,1.60
2023-01-03T07:55:36.867Z,1.60
2023-01-03T07:58:03.818Z,1.60
2023-01-03T08:00:30.516Z,1.60
2023-01-03T08:02:57.300Z,1.60
2023-01-03T08:05:24.514Z,1.60
2023-01-03T08:07:52.441Z,1.60
2023-01-03T08:10:38.729Z,1.60
2023-01-03T08:13:17.608Z,1.60
2023-01-03T08:15:52.435Z,1.60
2023-01-03T08:18:21.983Z,1.70
2023-01-03T08:20:48.716Z,1.70
2023-01-03T08:23:15.737Z,1.70
2023-01-03T08:25:42.417Z,1.70
2023-01-03T08:28:10.224Z,1.80
2023-01-03T08:30:41.551Z,1.80
2023-01-03T08:33:11.256Z,1.90
2023-01-03T08:35:40.940Z,1.90
2023-01-03T08:38:12.791Z,2.00
2023-01-03T08:40:42.302Z,2.10
2023-01-03T08:43:10.881Z,2.20
2023-01-03T08:45:38.985Z,2.20
2023-01-03T08:48:07.167Z,2.40
2023-01-03T08:50:34.306Z,2.40
2023-01-03T08:53:01.216Z,2.50
2023-01-03T08:55:28.059Z,2.60
2023-01-03T08:57:54.769Z,2.60
2023-01-03T09:00:21.517Z,2.90
2023-01-03T09:02:48.269Z,3.20
2023-01-03T09:05:15.645Z,3.50
2023-01-03T09:07:42.547Z,3.80
2023-01-03T09:10:09.849Z,3.90
2023-01-03T09:12:36.741Z,4.20
2023-01-03T09:15:03.773Z,4.30
2023-01-03T09:17:30.555Z,4.50
2023-01-03T09:19:57.139Z,4.60
2023-01-03T09:22:23.734Z,4.70
2023-01-03T09:24:50.353Z,4.80
2023-01-03T09:27:16.986Z,4.90
2023-01-03T09:29:43.613Z,5.00
2023-01-03T09:32:10.470Z,5.10
2023-01-03T09:34:37.109Z,5.10
2023-01-03T09:37:04.438Z,5.20
2023-01-03T09:39:31.100Z,5.30
2023-01-03T09:42:18.913Z,5.40
2023-01-03T09:44:46.575Z,5.50
2023-01-03T09:47:23.969Z,5.50
2023-01-03T09:50:26.689Z,5.80
2023-01-03T09:53:02.458Z,6.30
2023-01-03T09:56:11.155Z,7.20
2023-01-03T09:58:57.631Z,8.00
2023-01-03T10:01:51.971Z,8.30
2023-01-03T10:04:49.997Z,8.20
2023-01-03T10:07:28.806Z,8.10
2023-01-03T10:10:10.559Z,7.90
2023-01-03T10:12:45.611Z,7.70
2023-01-03T10:15:30.491Z,7.60
2023-01-03T10:18:23.669Z,7.60
2023-01-03T10:21:02.706Z,7.60
2023-01-03T10:23:30.815Z,7.60
2023-01-03T10:25:57.840Z,7.70
2023-01-03T10:28:27.182Z,7.80
2023-01-03T10:31:15.744Z,7.80
2023-01-03T10:33:47.427Z,7.70
2023-01-03T10:36:16.225Z,7.80
2023-01-03T10:38:52.002Z,7.90
2023-01-03T10:41:42.036Z,8.10
2023-01-03T10:44:28.867Z,8.00
2023-01-03T10:46:58.647Z,8.10
2023-01-03T10:49:30.436Z,8.30
2023-01-03T10:52:17.191Z,8.40
2023-01-03T10:54:49.321Z,8.40
2023-01-03T10:57:57.312Z,8.50
2023-01-03T11:00:50.403Z,8.40
2023-01-03T11:03:25.354Z,8.50
2023-01-03T11:06:00.333Z,8.50
2023-01-03T11:08:47.773Z,8.70
2023-01-03T11:11:35.349Z,8.70
2023-01-03T11:14:21.546Z,8.60
2023-01-03T11:16:55.238Z,8.50
2023-01-03T11:19:27.439Z,8.50
2023-01-03T11:22:05.891Z,8.50
2023-01-03T11:25:00.825Z,8.40
2023-01-03T11:27:59.209Z,8.40
2023-01-03T11:30:36.824Z,8.40
2023-01-03T11:33:12.274Z,8.30
2023-01-03T11:36:15.382Z,8.40
2023-01-03T11:39:15.606Z,8.50
2023-01-03T11:42:13.381Z,8.50
2023-01-03T11:44:48.855Z,8.50
2023-01-03T11:47:39.735Z,8.70
2023-01-03T11:50:41.379Z,8.80
2023-01-03T11:53:43.464Z,8.90
2023-01-03T11:56:29.947Z,9.00
2023-01-03T11:58:59.381Z,9.00
2023-01-03T12:01:39.260Z,8.80
2023-01-03T12:04:24.052Z,8.80
2023-01-03T12:10:23.430Z,8.90
2023-01-03T12:13:02.774Z,8.80
2023-01-03T12:15:50.194Z,8.60
2023-01-03T12:18:41.139Z,8.40
2023-01-03T12:21:14.608Z,8.30
2023-01-03T12:23:47.976Z,8.10
2023-01-03T12:26:17.240Z,8.00
2023-01-03T12:28:57.849Z,8.00
2023-01-03T12:31:32.223Z,7.90
2023-01-03T12:34:22.439Z,7.90
2023-01-03T12:36:55.299Z,7.90
2023-01-03T12:39:56.722Z,7.80
2023-01-03T12:42:33.601Z,7.90
2023-01-03T12:45:07.567Z,8.20
2023-01-03T12:47:52.673Z,8.40
2023-01-03T12:50:51.422Z,8.60
2023-01-03T12:53:41.138Z,8.70
2023-01-03T12:56:19.148Z,8.60
2023-01-03T12:59:07.991Z,8.40
2023-01-03T13:01:44.084Z,8.30
2023-01-03T13:04:20.874Z,8.00
2023-01-03T13:06:59.617Z,7.90
2023-01-03T13:09:32.443Z,7.80
2023-01-03T13:12:08.765Z,7.80
2023-01-03T13:14:54.404Z,7.80
2023-01-03T13:17:28.134Z,7.90
2023-01-03T13:19:56.447Z,7.90
2023-01-03T13:22:47.839Z,7.90
2023-01-03T13:25:26.415Z,7.90
2023-01-03T13:27:55.790Z,7.80
2023-01-03T13:30:28.458Z,7.70
2023-01-03T13:33:10.865Z,7.70
2023-01-03T13:35:56.856Z,7.60
2023-01-03T13:38:25.179Z,7.50
2023-01-03T13:43:50.040Z,7.40
2023-01-03T13:46:24.683Z,7.40
2023-01-03T13:48:58.704Z,7.30
2023-01-03T13:51:53.814Z,7.30
2023-01-03T13:54:20.439Z,7.20
2023-01-03T13:56:50.070Z,7.20
2023-01-03T13:59:19.935Z,7.20
2023-01-03T14:02:22.467Z,7.10
2023-01-03T14:05:07.053Z,7.10
2023-01-03T14:08:05.271Z,7.10
2023-01-03T14:10:48.312Z,7.00
2023-01-03T14:13:41.855Z,7.00
2023-01-03T14:16:30.622Z,7.00
2023-01-03T14:19:23.764Z,7.00
2023-01-03T14:22:08.982Z,7.00
2023-01-03T14:24:51.673Z,6.90
2023-01-03T14:27:21.044Z,6.90
2023-01-03T14:29:50.931Z,6.90
2023-01-03T14:32:34.432Z,6.90
2023-01-03T14:35:02.418Z,7.00
2023-01-03T14:37:30.177Z,7.00
2023-01-03T14:40:01.592Z,7.00
2023-01-03T14:42:29.088Z,7.10
2023-01-03T14:44:56.602Z,7.10
2023-01-03T14:47:34.194Z,7.10
2023-01-03T14:50:01.889Z,7.10
2023-01-03T14:52:39.793Z,7.10
2023-01-03T14:55:21.177Z,7.10
2023-01-03T14:57:49.631Z,7.00
2023-01-03T15:00:19.930Z,7.00
2023-01-03T15:02:48.515Z,7.10
2023-01-03T15:05:26.614Z,7.10
2023-01-03T15:07:54.128Z,7.10
2023-01-03T15:10:34.016Z,7.10
2023-01-03T15:13:04.955Z,7.00
2023-01-03T15:15:39.129Z,6.90
2023-01-03T15:18:09.739Z,6.90
2023-01-03T15:20:45.038Z,6.90
2023-01-03T15:23:37.519Z,6.90
2023-01-03T15:26:05.750Z,6.90
2023-01-03T15:28:50.143Z,6.90
2023-01-03T15:31:32.334Z,6.90
2023-01-03T15:34:12.571Z,6.80
2023-01-03T15:36:39.649Z,6.80
2023-01-03T15:39:18.370Z,6.80
2023-01-03T15:42:42.404Z,6.80
2023-01-03T15:44:50.737Z,6.80
2023-01-03T15:47:20.180Z,6.80
2023-01-03T15:49:49.951Z,6.80
2023-01-03T15:52:17.099Z,6.70
2023-01-03T15:54:45.148Z,6.70
2023-01-03T15:57:20.771Z,6.70
2023-01-03T15:59:56.705Z,6.70
2023-01-03T16:02:26.394Z,6.70
2023-01-03T16:04:53.912Z,6.70
2023-01-03T16:07:20.712Z,6.70
2023-01-03T16:09:47.617Z,6.70
2023-01-03T16:12:35.769Z,6.60
2023-01-03T16:15:04.177Z,6.70
2023-01-03T16:17:32.150Z,6.60
2023-01-03T16:19:59.640Z,6.60
2023-01-03T16:22:35.752Z,6.50
2023-01-03T16:25:03.708Z,6.40
2023-01-03T16:27:30.325Z,6.40
2023-01-03T16:29:56.974Z,6.30
2023-01-03T16:32:29.108Z,6.20
2023-01-03T16:35:05.395Z,6.20
2023-01-03T16:37:32.142Z,6.10
2023-01-03T16:39:58.874Z,6.00
2023-01-03T16:42:28.718Z,5.90
2023-01-03T16:44:55.450Z,5.90
2023-01-03T16:47:32.741Z,5.90
2023-01-03T16:50:27.768Z,5.90
2023-01-03T16:52:56.077Z,5.80
2023-01-03T16:55:27.217Z,5.70
2023-01-03T16:57:55.374Z,5.70
2023-01-03T17:00:24.880Z,5.60
2023-01-03T17:02:52.069Z,5.60
2023-01-03T17:05:18.966Z,5.60
2023-01-03T17:07:48.780Z,5.60
2023-01-03T17:10:32.994Z,5.50
2023-01-03T17:13:04.052Z,5.50
2023-01-03T17:15:35.277Z,5.40
2023-01-03T17:18:01.899Z,5.40
2023-01-03T17:20:28.546Z,5.30
2023-01-03T17:22:59.286Z,5.30
2023-01-03T17:25:26.239Z,5.30
2023-01-03T17:27:56.639Z,5.30
2023-01-03T17:30:26.048Z,5.40
2023-01-03T17:32:52.851Z,5.50
2023-01-03T17:35:19.521Z,5.50
2023-01-03T17:38:23.411Z,5.50
2023-01-03T17:40:34.139Z,5.60
2023-01-03T17:43:02.404Z,5.60
2023-01-03T17:45:47.794Z,5.60
2023-01-03T17:48:33.264Z,5.60
2023-01-03T17:51:01.699Z,5.60
2023-01-03T17:53:29.373Z,5.50
2023-01-03T17:55:56.099Z,5.50
2023-01-03T17:58:30.948Z,5.50
2023-01-03T18:00:57.667Z,5.50
2023-01-03T18:03:24.562Z,5.50
2023-01-03T18:05:51.761Z,5.50
2023-01-03T18:08:22.090Z,5.50
2023-01-03T18:10:50.135Z,5.50
2023-01-03T18:13:26.271Z,5.50
2023-01-03T18:15:54.253Z,5.40
2023-01-03T18:18:23.596Z,5.50
2023-01-03T18:20:51.033Z,5.50
2023-01-03T18:23:24.639Z,5.50
2023-01-03T18:25:52.235Z,5.50
2023-01-03T18:28:23.249Z,5.50
2023-01-03T18:30:49.888Z,5.50
2023-01-03T18:33:16.787Z,5.50
2023-01-03T18:35:43.822Z,5.50
2023-01-03T18:38:32.936Z,5.40
2023-01-03T18:41:04.866Z,5.50
2023-01-03T18:43:32.490Z,5.50
2023-01-03T18:45:59.347Z,5.50
2023-01-03T18:48:26.171Z,5.60
2023-01-03T18:50:58.307Z,5.60
2023-01-03T18:53:29.180Z,5.60
2023-01-03T18:55:56.474Z,5.60
2023-01-03T18:58:36.529Z,5.70
2023-01-03T19:01:04.786Z,5.70
2023-01-03T19:03:33.405Z,5.70
2023-01-03T19:06:01.697Z,5.70
2023-01-03T19:08:31.811Z,5.80
2023-01-03T19:11:05.336Z,5.80
2023-01-03T19:13:54.377Z,5.70
2023-01-03T19:16:26.715Z,5.70
2023-01-03T19:18:53.502Z,5.60
2023-01-03T19:21:22.242Z,5.60
2023-01-03T19:24:21.846Z,5.60
2023-01-03T19:26:55.835Z,5.60
2023-01-03T19:29:26.186Z,5.60
2023-01-03T19:31:56.093Z,5.60
2023-01-03T19:34:25.011Z,5.50
2023-01-03T19:36:52.444Z,5.50
2023-01-03T19:39:25.320Z,5.40
2023-01-03T19:42:13.822Z,5.40
2023-01-03T19:44:41.397Z,5.30
2023-01-03T19:47:17.520Z,5.30
2023-01-03T19:49:47.180Z,5.30
2023-01-03T19:52:14.357Z,5.30
2023-01-03T19:54:40.944Z,5.30
2023-01-03T19:57:20.256Z,5.40
2023-01-03T19:59:51.325Z,5.40
2023-01-03T20:02:41.986Z,5.50
2023-01-03T20:05:27.056Z,5.50
2023-01-03T20:07:53.958Z,5.50
2023-01-03T20:10:23.910Z,5.50
2023-01-03T20:12:53.443Z,5.60
2023-01-03T20:15:40.716Z,5.60
2023-01-03T20:18:28.650Z,5.50
2023-01-03T20:20:59.144Z,5.50
2023-01-03T20:23:29.657Z,5.50
2023-01-03T20:25:56.361Z,5.50
2023-01-03T20:28:30.887Z,5.40
2023-01-03T20:31:01.887Z,5.40
2023-01-03T20:33:28.810Z,5.40
2023-01-03T20:36:16.332Z,5.40
2023-01-03T20:38:50.109Z,5.40
2023-01-03T20:41:18.223Z,5.30
2023-01-03T20:43:45.443Z,5.30
2023-01-03T20:46:17.654Z,5.30
2023-01-03T20:48:46.659Z,5.30
2023-01-03T20:51:13.944Z,5.30
2023-01-03T20:53:43.086Z,5.30
2023-01-03T20:56:12.852Z,5.30
2023-01-03T20:58:39.742Z,5.30
2023-01-03T21:01:10.332Z,5.30
2023-01-03T21:03:38.328Z,5.30
2023-01-03T21:06:19.627Z,5.20
2023-01-03T21:08:55.666Z,5.30
2023-01-03T21:11:31.444Z,5.30
2023-01-03T21:13:59.918Z,5.30
2023-01-03T21:16:31.526Z,5.30
2023-01-03T21:19:22.178Z,5.20
2023-01-03T21:21:51.483Z,5.20
2023-01-03T21:24:20.459Z,5.10
2023-01-03T21:26:47.205Z,5.10
2023-01-03T21:29:13.943Z,5.10
2023-01-03T21:31:42.403Z,5.10
2023-01-03T21:34:16.759Z,5.10
2023-01-03T21:36:43.418Z,5.10
2023-01-03T21:39:10.752Z,5.10
2023-01-03T21:41:57.471Z,5.00
2023-01-03T21:44:24.100Z,5.10
2023-01-03T21:46:50.763Z,5.10
2023-01-03T21:49:17.326Z,5.10
2023-01-03T21:51:43.936Z,5.10
2023-01-03T21:54:10.655Z,5.10
2023-01-03T21:56:44.979Z,5.10
2023-01-03T21:59:13.568Z,5.10
2023-01-03T22:02:00.605Z,5.10
2023-01-03T22:04:27.422Z,5.10
2023-01-03T22:07:00.200Z,5.10
2023-01-03T22:09:49.287Z,5.00
2023-01-03T22:12:17.027Z,5.10
2023-01-03T22:14:44.724Z,5.10
2023-01-03T22:17:11.410Z,5.10
2023-01-03T22:19:38.238Z,5.10
2023-01-03T22:22:04.985Z,5.10
2023-01-03T22:24:31.718Z,5.20
2023-01-03T22:26:58.353Z,5.20
2023-01-03T22:29:25.041Z,5.20
2023-01-03T22:31:51.805Z,5.20
2023-01-03T22:34:18.527Z,5.20
2023-01-03T22:36:45.170Z,5.20
2023-01-03T22:39:11.782Z,5.10
2023-01-03T22:41:38.438Z,5.20
2023-01-03T22:44:05.075Z,5.30
2023-01-03T22:46:31.825Z,5.30
2023-01-03T22:48:58.480Z,5.30
2023-01-03T22:51:25.227Z,5.30
2023-01-03T22:53:51.863Z,5.30
2023-01-03T22:56:18.647Z,5.30
2023-01-03T22:58:46.208Z,5.30
2023-01-03T23:01:16.057Z,5.20
2023-01-03T23:03:44.484Z,5.20
2023-01-03T23:06:15.513Z,5.20
2023-01-03T23:08:42.529Z,5.20
2023-01-03T23:11:34.663Z,5.30
2023-01-03T23:14:03.880Z,5.30
2023-01-03T23:16:32.209Z,5.20
2023-01-03T23:19:02.841Z,5.20
2023-01-03T23:21:29.651Z,5.10
2023-01-03T23:23:56.398Z,5.10
2023-01-03T23:26:23.346Z,5.10
2023-01-03T23:28:53.445Z,5.00
2023-01-03T23:31:20.068Z,5.10
2023-01-03T23:33:46.761Z,5.10
2023-01-03T23:36:15.533Z,5.10
2023-01-03T23:38:42.192Z,5.10
2023-01-03T23:41:09.957Z,5.10
2023-01-03T23:43:37.047Z,5.10
2023-01-03T23:46:05.224Z,5.10
2023-01-03T23:48:32.591Z,5.10
2023-01-03T23:51:06.841Z,5.10
2023-01-03T23:53:41.238Z,5.10
2023-01-03T23:56:14.293Z,5.00
2023-01-03T23:58:41.088Z,5.00
